sensor_id;sensor_type;location;lat;lon;timestamp;temperature;humidity
35129;DHT22;21301;43.626;10.580;2023-06-14T00:00:52;19.10;99.90
35129;DHT22;21301;43.626;10.580;2023-06-14T00:03:18;19.00;99.90
35129;DHT22;21301;43.626;10.580;2023-06-14T00:05:48;18.80;99.90
35129;DHT22;21301;43.626;10.580;2023-06-14T00:08:14;18.80;99.90
35129;DHT22;21301;43.626;10.580;2023-06-14T00:10:41;18.70;99.90
35129;DHT22;21301;43.626;10.580;2023-06-14T00:13:11;18.70;99.90
35129;DHT22;21301;43.626;10.580;2023-06-14T00:15:37;18.60;99.90
35129;DHT22;21301;43.626;10.580;2023-06-14T00:18:04;18.60;99.90
35129;DHT22;21301;43.626;10.580;2023-06-14T00:20:31;18.60;99.90
35129;DHT22;21301;43.626;10.580;2023-06-14T00:23:01;18.60;99.90
35129;DHT22;21301;43.626;10.580;2023-06-14T00:25:27;18.50;99.90
35129;DHT22;21301;43.626;10.580;2023-06-14T00:27:54;18.50;99.90
35129;DHT22;21301;43.626;10.580;2023-06-14T00:30:20;18.50;99.90
35129;DHT22;21301;43.626;10.580;2023-06-14T00:32:47;18.50;99.90
35129;DHT22;21301;43.626;10.580;2023-06-14T00:35:13;18.50;99.90
35129;DHT22;21301;43.626;10.580;2023-06-14T00:37:39;18.50;99.90
35129;DHT22;21301;43.626;10.580;2023-06-14T00:40:06;18.50;99.90
35129;DHT22;21301;43.626;10.580;2023-06-14T00:42:32;18.50;99.90
35129;DHT22;21301;43.626;10.580;2023-06-14T00:44:59;18.50;99.90
35129;DHT22;21301;43.626;10.580;2023-06-14T00:47:25;18.60;99.90
35129;DHT22;21301;43.626;10.580;2023-06-14T00:49:53;18.70;99.90
35129;DHT22;21301;43.626;10.580;2023-06-14T00:52:20;18.90;99.90
35129;DHT22;21301;43.626;10.580;2023-06-14T00:54:46;18.80;99.90
35129;DHT22;21301;43.626;10.580;2023-06-14T00:57:12;18.70;99.90
35129;DHT22;21301;43.626;10.580;2023-06-14T00:59:47;18.70;99.90
35129;DHT22;21301;43.626;10.580;2023-06-14T01:02:14;18.50;99.90
35129;DHT22;21301;43.626;10.580;2023-06-14T01:04:46;18.50;99.90
35129;DHT22;21301;43.626;10.580;2023-06-14T01:15:44;18.20;99.90
35129;DHT22;21301;43.626;10.580;2023-06-14T01:18:11;18.20;99.90
35129;DHT22;21301;43.626;10.580;2023-06-14T01:20:43;18.20;99.90
35129;DHT22;21301;43.626;10.580;2023-06-14T01:23:10;18.20;99.90
35129;DHT22;21301;43.626;10.580;2023-06-14T01:25:38;18.20;99.90
35129;DHT22;21301;43.626;10.580;2023-06-14T01:28:06;18.40;99.90
35129;DHT22;21301;43.626;10.580;2023-06-14T01:30:41;18.30;99.90
35129;DHT22;21301;43.626;10.580;2023-06-14T01:33:15;18.30;99.90
35129;DHT22;21301;43.626;10.580;2023-06-14T01:35:43;18.30;99.90
35129;DHT22;21301;43.626;10.580;2023-06-14T01:38:10;18.20;99.90
35129;DHT22;21301;43.626;10.580;2023-06-14T01:40:36;18.20;99.90
35129;DHT22;21301;43.626;10.580;2023-06-14T01:43:03;18.20;99.90
35129;DHT22;21301;43.626;10.580;2023-06-14T01:45:30;18.20;99.90
35129;DHT22;21301;43.626;10.580;2023-06-14T01:47:57;18.20;99.90
35129;DHT22;21301;43.626;10.580;2023-06-14T01:50:23;18.20;99.90
35129;DHT22;21301;43.626;10.580;2023-06-14T01:52:49;18.20;99.90
35129;DHT22;21301;43.626;10.580;2023-06-14T01:55:15;18.10;99.90
35129;DHT22;21301;43.626;10.580;2023-06-14T01:57:43;18.10;99.90
35129;DHT22;21301;43.626;10.580;2023-06-14T02:00:10;18.10;99.90
35129;DHT22;21301;43.626;10.580;2023-06-14T02:02:41;18.20;99.90
35129;DHT22;21301;43.626;10.580;2023-06-14T02:05:07;18.20;99.90
35129;DHT22;21301;43.626;10.580;2023-06-14T02:07:33;18.20;99.90
35129;DHT22;21301;43.626;10.580;2023-06-14T02:09:59;18.20;99.90
35129;DHT22;21301;43.626;10.580;2023-06-14T02:12:25;18.20;99.90
35129;DHT22;21301;43.626;10.580;2023-06-14T02:14:51;18.20;99.90
35129;DHT22;21301;43.626;10.580;2023-06-14T02:17:16;18.20;99.90
35129;DHT22;21301;43.626;10.580;2023-06-14T02:19:43;18.30;99.90
35129;DHT22;21301;43.626;10.580;2023-06-14T02:22:09;18.20;99.90
35129;DHT22;21301;43.626;10.580;2023-06-14T02:24:34;18.30;99.90
35129;DHT22;21301;43.626;10.580;2023-06-14T02:27:02;18.40;99.90
35129;DHT22;21301;43.626;10.580;2023-06-14T02:29:27;18.40;99.90
35129;DHT22;21301;43.626;10.580;2023-06-14T02:31:53;18.40;99.90
35129;DHT22;21301;43.626;10.580;2023-06-14T02:34:20;18.50;99.90
35129;DHT22;21301;43.626;10.580;2023-06-14T02:36:47;18.50;99.90
35129;DHT22;21301;43.626;10.580;2023-06-14T02:39:13;18.50;99.90
35129;DHT22;21301;43.626;10.580;2023-06-14T02:41:39;18.50;99.90
35129;DHT22;21301;43.626;10.580;2023-06-14T02:44:06;18.40;99.90
35129;DHT22;21301;43.626;10.580;2023-06-14T02:46:32;18.40;99.90
35129;DHT22;21301;43.626;10.580;2023-06-14T02:48:57;18.50;99.90
35129;DHT22;21301;43.626;10.580;2023-06-14T02:51:23;18.50;99.90
35129;DHT22;21301;43.626;10.580;2023-06-14T02:53:49;18.50;99.90
35129;DHT22;21301;43.626;10.580;2023-06-14T02:56:16;18.50;99.90
35129;DHT22;21301;43.626;10.580;2023-06-14T02:58:43;18.50;99.90
35129;DHT22;21301;43.626;10.580;2023-06-14T03:01:10;18.50;99.90
35129;DHT22;21301;43.626;10.580;2023-06-14T03:03:40;18.40;99.90
35129;DHT22;21301;43.626;10.580;2023-06-14T03:06:06;18.50;99.90
35129;DHT22;21301;43.626;10.580;2023-06-14T03:08:36;18.70;99.90
35129;DHT22;21301;43.626;10.580;2023-06-14T03:11:08;18.60;99.90
35129;DHT22;21301;43.626;10.580;2023-06-14T03:13:35;18.50;99.90
35129;DHT22;21301;43.626;10.580;2023-06-14T03:16:03;18.50;99.90
35129;DHT22;21301;43.626;10.580;2023-06-14T03:18:31;18.50;99.90
35129;DHT22;21301;43.626;10.580;2023-06-14T03:21:02;18.40;99.90
35129;DHT22;21301;43.626;10.580;2023-06-14T03:23:28;18.40;99.90
35129;DHT22;21301;43.626;10.580;2023-06-14T03:25:55;18.30;99.90
35129;DHT22;21301;43.626;10.580;2023-06-14T03:28:21;18.40;99.90
35129;DHT22;21301;43.626;10.580;2023-06-14T03:30:47;18.40;99.90
35129;DHT22;21301;43.626;10.580;2023-06-14T03:33:14;18.30;99.90
35129;DHT22;21301;43.626;10.580;2023-06-14T03:35:41;18.20;99.90
35129;DHT22;21301;43.626;10.580;2023-06-14T03:38:08;18.20;99.90
35129;DHT22;21301;43.626;10.580;2023-06-14T03:40:34;18.20;99.90
35129;DHT22;21301;43.626;10.580;2023-06-14T03:43:02;18.40;99.90
35129;DHT22;21301;43.626;10.580;2023-06-14T03:45:28;18.50;99.90
35129;DHT22;21301;43.626;10.580;2023-06-14T03:47:56;18.40;99.90
35129;DHT22;21301;43.626;10.580;2023-06-14T03:50:23;18.40;99.90
35129;DHT22;21301;43.626;10.580;2023-06-14T03:52:50;18.40;99.90
35129;DHT22;21301;43.626;10.580;2023-06-14T03:55:16;18.40;99.90
35129;DHT22;21301;43.626;10.580;2023-06-14T03:57:43;18.40;99.90
35129;DHT22;21301;43.626;10.580;2023-06-14T04:00:12;18.50;99.90
35129;DHT22;21301;43.626;10.580;2023-06-14T04:02:40;18.50;99.90
35129;DHT22;21301;43.626;10.580;2023-06-14T04:05:08;18.60;99.90
35129;DHT22;21301;43.626;10.580;2023-06-14T04:07:37;18.70;99.90
35129;DHT22;21301;43.626;10.580;2023-06-14T04:10:08;18.70;99.90
35129;DHT22;21301;43.626;10.580;2023-06-14T04:12:34;18.70;99.90
35129;DHT22;21301;43.626;10.580;2023-06-14T04:15:00;18.70;99.90
35129;DHT22;21301;43.626;10.580;2023-06-14T04:17:28;18.60;99.90
35129;DHT22;21301;43.626;10.580;2023-06-14T04:19:54;18.50;99.90
35129;DHT22;21301;43.626;10.580;2023-06-14T04:22:20;18.80;99.90
35129;DHT22;21301;43.626;10.580;2023-06-14T04:24:46;19.00;99.90
35129;DHT22;21301;43.626;10.580;2023-06-14T04:27:11;19.20;99.90
35129;DHT22;21301;43.626;10.580;2023-06-14T04:29:39;19.30;99.90
35129;DHT22;21301;43.626;10.580;2023-06-14T04:32:09;19.50;99.90
35129;DHT22;21301;43.626;10.580;2023-06-14T04:34:37;19.60;99.90
35129;DHT22;21301;43.626;10.580;2023-06-14T04:37:05;19.60;99.90
35129;DHT22;21301;43.626;10.580;2023-06-14T04:39:36;19.40;99.90
35129;DHT22;21301;43.626;10.580;2023-06-14T04:42:02;19.30;99.90
35129;DHT22;21301;43.626;10.580;2023-06-14T04:44:30;19.10;99.90
35129;DHT22;21301;43.626;10.580;2023-06-14T04:46:59;19.00;99.90
35129;DHT22;21301;43.626;10.580;2023-06-14T04:49:25;18.90;99.90
35129;DHT22;21301;43.626;10.580;2023-06-14T04:51:53;18.80;99.90
35129;DHT22;21301;43.626;10.580;2023-06-14T04:54:25;18.70;99.90
35129;DHT22;21301;43.626;10.580;2023-06-14T04:56:52;18.70;99.90
35129;DHT22;21301;43.626;10.580;2023-06-14T04:59:22;18.70;99.90
35129;DHT22;21301;43.626;10.580;2023-06-14T05:01:51;18.70;99.90
35129;DHT22;21301;43.626;10.580;2023-06-14T05:04:18;18.70;99.90
35129;DHT22;21301;43.626;10.580;2023-06-14T05:06:47;18.80;99.90
35129;DHT22;21301;43.626;10.580;2023-06-14T05:09:17;19.00;99.90
35129;DHT22;21301;43.626;10.580;2023-06-14T05:11:44;19.30;99.90
35129;DHT22;21301;43.626;10.580;2023-06-14T05:14:11;19.50;99.90
35129;DHT22;21301;43.626;10.580;2023-06-14T05:16:37;19.80;99.90
35129;DHT22;21301;43.626;10.580;2023-06-14T05:19:04;20.00;99.90
35129;DHT22;21301;43.626;10.580;2023-06-14T05:21:30;20.00;99.90
35129;DHT22;21301;43.626;10.580;2023-06-14T05:23:57;20.00;99.90
35129;DHT22;21301;43.626;10.580;2023-06-14T05:26:23;20.10;99.90
35129;DHT22;21301;43.626;10.580;2023-06-14T05:28:50;20.10;99.90
35129;DHT22;21301;43.626;10.580;2023-06-14T05:31:18;20.00;99.90
35129;DHT22;21301;43.626;10.580;2023-06-14T05:33:44;20.00;99.90
35129;DHT22;21301;43.626;10.580;2023-06-14T05:36:09;20.10;99.90
35129;DHT22;21301;43.626;10.580;2023-06-14T05:38:35;20.20;99.90
35129;DHT22;21301;43.626;10.580;2023-06-14T05:41:01;20.40;99.90
35129;DHT22;21301;43.626;10.580;2023-06-14T05:43:27;20.40;99.90
35129;DHT22;21301;43.626;10.580;2023-06-14T05:45:53;20.30;99.90
35129;DHT22;21301;43.626;10.580;2023-06-14T05:48:19;20.40;99.90
35129;DHT22;21301;43.626;10.580;2023-06-14T05:50:45;20.50;99.90
35129;DHT22;21301;43.626;10.580;2023-06-14T05:53:11;20.50;99.90
35129;DHT22;21301;43.626;10.580;2023-06-14T05:55:36;20.40;99.90
35129;DHT22;21301;43.626;10.580;2023-06-14T05:58:02;20.30;99.90
35129;DHT22;21301;43.626;10.580;2023-06-14T06:00:30;20.50;99.90
35129;DHT22;21301;43.626;10.580;2023-06-14T06:02:56;20.80;99.90
35129;DHT22;21301;43.626;10.580;2023-06-14T06:05:23;20.60;99.90
35129;DHT22;21301;43.626;10.580;2023-06-14T06:07:49;20.50;99.90
35129;DHT22;21301;43.626;10.580;2023-06-14T06:10:15;20.40;99.90
35129;DHT22;21301;43.626;10.580;2023-06-14T06:12:41;20.50;99.90
35129;DHT22;21301;43.626;10.580;2023-06-14T06:15:08;20.50;99.90
35129;DHT22;21301;43.626;10.580;2023-06-14T06:17:38;20.30;99.90
35129;DHT22;21301;43.626;10.580;2023-06-14T06:20:07;20.40;99.90
35129;DHT22;21301;43.626;10.580;2023-06-14T06:22:34;20.50;99.90
35129;DHT22;21301;43.626;10.580;2023-06-14T06:25:00;20.50;99.90
35129;DHT22;21301;43.626;10.580;2023-06-14T06:27:25;20.70;99.90
35129;DHT22;21301;43.626;10.580;2023-06-14T06:29:51;20.70;99.90
35129;DHT22;21301;43.626;10.580;2023-06-14T06:32:18;20.90;99.90
35129;DHT22;21301;43.626;10.580;2023-06-14T06:34:44;21.00;99.90
35129;DHT22;21301;43.626;10.580;2023-06-14T06:37:16;21.40;99.90
35129;DHT22;21301;43.626;10.580;2023-06-14T06:39:42;21.50;99.90
35129;DHT22;21301;43.626;10.580;2023-06-14T06:42:08;21.60;99.90
35129;DHT22;21301;43.626;10.580;2023-06-14T06:44:36;21.60;99.90
35129;DHT22;21301;43.626;10.580;2023-06-14T06:47:02;21.90;99.90
35129;DHT22;21301;43.626;10.580;2023-06-14T06:49:28;22.00;99.90
35129;DHT22;21301;43.626;10.580;2023-06-14T06:52:04;22.00;99.90
35129;DHT22;21301;43.626;10.580;2023-06-14T06:54:32;22.00;99.90
35129;DHT22;21301;43.626;10.580;2023-06-14T06:56:58;21.90;99.90
35129;DHT22;21301;43.626;10.580;2023-06-14T06:59:25;22.00;99.90
35129;DHT22;21301;43.626;10.580;2023-06-14T07:01:51;22.20;99.90
35129;DHT22;21301;43.626;10.580;2023-06-14T07:04:17;22.40;99.90
35129;DHT22;21301;43.626;10.580;2023-06-14T07:06:43;22.50;99.90
35129;DHT22;21301;43.626;10.580;2023-06-14T07:09:08;22.40;99.90
35129;DHT22;21301;43.626;10.580;2023-06-14T07:11:42;22.90;99.90
35129;DHT22;21301;43.626;10.580;2023-06-14T07:14:08;23.20;99.90
35129;DHT22;21301;43.626;10.580;2023-06-14T07:16:33;23.70;99.90
35129;DHT22;21301;43.626;10.580;2023-06-14T07:18:59;23.80;99.90
35129;DHT22;21301;43.626;10.580;2023-06-14T07:21:26;24.30;99.90
35129;DHT22;21301;43.626;10.580;2023-06-14T07:23:55;24.50;99.90
35129;DHT22;21301;43.626;10.580;2023-06-14T07:26:21;24.50;99.90
35129;DHT22;21301;43.626;10.580;2023-06-14T07:28:48;24.40;99.90
35129;DHT22;21301;43.626;10.580;2023-06-14T07:31:15;24.60;99.90
35129;DHT22;21301;43.626;10.580;2023-06-14T07:33:41;24.30;99.90
35129;DHT22;21301;43.626;10.580;2023-06-14T07:36:08;24.30;99.90
35129;DHT22;21301;43.626;10.580;2023-06-14T07:38:34;24.40;99.90
35129;DHT22;21301;43.626;10.580;2023-06-14T07:41:00;24.70;99.90
35129;DHT22;21301;43.626;10.580;2023-06-14T07:43:26;24.60;99.90
35129;DHT22;21301;43.626;10.580;2023-06-14T07:45:52;24.40;99.90
35129;DHT22;21301;43.626;10.580;2023-06-14T07:48:18;24.80;99.90
35129;DHT22;21301;43.626;10.580;2023-06-14T07:50:44;25.20;99.90
35129;DHT22;21301;43.626;10.580;2023-06-14T07:53:10;25.40;99.90
35129;DHT22;21301;43.626;10.580;2023-06-14T07:55:35;25.90;99.90
35129;DHT22;21301;43.626;10.580;2023-06-14T07:58:03;25.70;99.90
35129;DHT22;21301;43.626;10.580;2023-06-14T08:00:29;25.90;99.90
35129;DHT22;21301;43.626;10.580;2023-06-14T08:02:55;26.00;99.90
35129;DHT22;21301;43.626;10.580;2023-06-14T08:05:24;26.20;99.90
35129;DHT22;21301;43.626;10.580;2023-06-14T08:07:51;26.00;99.90
35129;DHT22;21301;43.626;10.580;2023-06-14T08:10:18;26.50;99.90
35129;DHT22;21301;43.626;10.580;2023-06-14T08:12:43;26.80;99.90
35129;DHT22;21301;43.626;10.580;2023-06-14T08:15:10;26.60;99.90
35129;DHT22;21301;43.626;10.580;2023-06-14T08:17:35;26.20;99.90
35129;DHT22;21301;43.626;10.580;2023-06-14T08:20:02;26.30;99.90
35129;DHT22;21301;43.626;10.580;2023-06-14T08:22:30;26.60;99.90
35129;DHT22;21301;43.626;10.580;2023-06-14T08:24:59;26.70;99.90
35129;DHT22;21301;43.626;10.580;2023-06-14T08:27:26;27.20;99.90
35129;DHT22;21301;43.626;10.580;2023-06-14T08:29:53;27.50;99.90
35129;DHT22;21301;43.626;10.580;2023-06-14T08:32:19;27.20;99.90
35129;DHT22;21301;43.626;10.580;2023-06-14T08:34:44;27.90;99.90
35129;DHT22;21301;43.626;10.580;2023-06-14T08:37:10;28.30;99.90
35129;DHT22;21301;43.626;10.580;2023-06-14T08:39:36;27.80;99.90
35129;DHT22;21301;43.626;10.580;2023-06-14T08:42:03;28.10;99.90
35129;DHT22;21301;43.626;10.580;2023-06-14T08:44:30;27.20;99.90
35129;DHT22;21301;43.626;10.580;2023-06-14T08:46:56;27.50;99.90
35129;DHT22;21301;43.626;10.580;2023-06-14T08:49:25;27.50;99.90
35129;DHT22;21301;43.626;10.580;2023-06-14T08:51:58;27.90;99.90
35129;DHT22;21301;43.626;10.580;2023-06-14T08:54:28;27.60;99.90
35129;DHT22;21301;43.626;10.580;2023-06-14T08:56:56;27.40;99.90
35129;DHT22;21301;43.626;10.580;2023-06-14T08:59:28;27.20;99.90
35129;DHT22;21301;43.626;10.580;2023-06-14T09:01:54;27.70;99.90
35129;DHT22;21301;43.626;10.580;2023-06-14T09:04:24;27.80;99.90
35129;DHT22;21301;43.626;10.580;2023-06-14T09:06:55;27.60;99.90
35129;DHT22;21301;43.626;10.580;2023-06-14T09:09:22;27.70;99.90
35129;DHT22;21301;43.626;10.580;2023-06-14T09:11:54;27.80;99.90
35129;DHT22;21301;43.626;10.580;2023-06-14T09:14:23;28.10;99.90
35129;DHT22;21301;43.626;10.580;2023-06-14T09:16:52;27.50;99.90
35129;DHT22;21301;43.626;10.580;2023-06-14T09:19:25;27.60;99.90
35129;DHT22;21301;43.626;10.580;2023-06-14T09:21:51;27.10;99.90
35129;DHT22;21301;43.626;10.580;2023-06-14T09:24:19;27.40;99.90
35129;DHT22;21301;43.626;10.580;2023-06-14T09:26:48;27.60;99.90
35129;DHT22;21301;43.626;10.580;2023-06-14T09:29:17;27.70;99.90
35129;DHT22;21301;43.626;10.580;2023-06-14T09:31:43;27.60;99.90
35129;DHT22;21301;43.626;10.580;2023-06-14T09:34:09;27.50;99.90
35129;DHT22;21301;43.626;10.580;2023-06-14T09:36:35;27.50;99.90
35129;DHT22;21301;43.626;10.580;2023-06-14T09:39:03;27.30;99.90
35129;DHT22;21301;43.626;10.580;2023-06-14T09:41:39;27.20;99.90
35129;DHT22;21301;43.626;10.580;2023-06-14T09:44:09;27.00;99.90
35129;DHT22;21301;43.626;10.580;2023-06-14T09:46:36;27.10;99.90
35129;DHT22;21301;43.626;10.580;2023-06-14T09:49:03;27.70;99.90
35129;DHT22;21301;43.626;10.580;2023-06-14T09:51:30;27.40;99.90
35129;DHT22;21301;43.626;10.580;2023-06-14T09:53:59;27.50;99.90
35129;DHT22;21301;43.626;10.580;2023-06-14T09:56:41;27.30;99.90
35129;DHT22;21301;43.626;10.580;2023-06-14T09:59:09;27.50;99.90
35129;DHT22;21301;43.626;10.580;2023-06-14T10:01:36;27.20;99.90
35129;DHT22;21301;43.626;10.580;2023-06-14T10:04:07;27.40;99.90
35129;DHT22;21301;43.626;10.580;2023-06-14T10:06:36;27.40;99.90
35129;DHT22;21301;43.626;10.580;2023-06-14T10:09:04;27.60;99.90
35129;DHT22;21301;43.626;10.580;2023-06-14T10:11:35;27.20;99.90
35129;DHT22;21301;43.626;10.580;2023-06-14T10:14:02;27.00;99.90
35129;DHT22;21301;43.626;10.580;2023-06-14T10:16:36;27.00;99.90
35129;DHT22;21301;43.626;10.580;2023-06-14T10:21:45;27.30;99.90
35129;DHT22;21301;43.626;10.580;2023-06-14T10:24:15;27.20;99.90
35129;DHT22;21301;43.626;10.580;2023-06-14T10:26:56;27.20;99.90
35129;DHT22;21301;43.626;10.580;2023-06-14T10:29:22;26.90;99.90
35129;DHT22;21301;43.626;10.580;2023-06-14T10:31:56;27.00;99.90
35129;DHT22;21301;43.626;10.580;2023-06-14T10:34:32;27.10;99.90
35129;DHT22;21301;43.626;10.580;2023-06-14T10:37:12;27.40;99.90
35129;DHT22;21301;43.626;10.580;2023-06-14T10:39:42;27.60;99.90
35129;DHT22;21301;43.626;10.580;2023-06-14T10:42:10;27.40;99.90
35129;DHT22;21301;43.626;10.580;2023-06-14T10:47:32;27.50;99.90
35129;DHT22;21301;43.626;10.580;2023-06-14T10:50:08;27.80;99.90
35129;DHT22;21301;43.626;10.580;2023-06-14T10:52:38;27.20;99.90
35129;DHT22;21301;43.626;10.580;2023-06-14T10:57:44;27.50;99.90
35129;DHT22;21301;43.626;10.580;2023-06-14T11:00:17;28.00;99.90
35129;DHT22;21301;43.626;10.580;2023-06-14T11:05:54;27.20;99.90
35129;DHT22;21301;43.626;10.580;2023-06-14T11:09:06;27.70;99.90
35129;DHT22;21301;43.626;10.580;2023-06-14T11:11:31;28.30;99.90
35129;DHT22;21301;43.626;10.580;2023-06-14T11:13:59;28.80;99.90
35129;DHT22;21301;43.626;10.580;2023-06-14T11:16:26;28.40;99.90
35129;DHT22;21301;43.626;10.580;2023-06-14T11:18:53;28.90;99.90
35129;DHT22;21301;43.626;10.580;2023-06-14T11:21:19;29.00;99.90
35129;DHT22;21301;43.626;10.580;2023-06-14T11:23:50;29.00;99.90
35129;DHT22;21301;43.626;10.580;2023-06-14T11:26:28;29.00;99.90
35129;DHT22;21301;43.626;10.580;2023-06-14T11:29:00;27.60;99.90
35129;DHT22;21301;43.626;10.580;2023-06-14T11:31:27;27.40;99.90
35129;DHT22;21301;43.626;10.580;2023-06-14T11:33:55;27.60;99.90
35129;DHT22;21301;43.626;10.580;2023-06-14T11:36:22;28.40;99.90
35129;DHT22;21301;43.626;10.580;2023-06-14T11:38:48;28.70;99.90
35129;DHT22;21301;43.626;10.580;2023-06-14T11:41:14;28.60;99.90
35129;DHT22;21301;43.626;10.580;2023-06-14T11:43:40;28.60;99.90
35129;DHT22;21301;43.626;10.580;2023-06-14T11:46:12;28.30;99.90
35129;DHT22;21301;43.626;10.580;2023-06-14T11:48:42;28.90;99.90
35129;DHT22;21301;43.626;10.580;2023-06-14T11:51:08;29.00;99.90
35129;DHT22;21301;43.626;10.580;2023-06-14T11:53:34;28.50;99.90
35129;DHT22;21301;43.626;10.580;2023-06-14T11:56:00;28.50;99.90
35129;DHT22;21301;43.626;10.580;2023-06-14T11:58:27;29.00;99.90
35129;DHT22;21301;43.626;10.580;2023-06-14T12:00:54;28.90;99.90
35129;DHT22;21301;43.626;10.580;2023-06-14T12:03:24;28.70;99.90
35129;DHT22;21301;43.626;10.580;2023-06-14T12:06:04;28.60;99.90
35129;DHT22;21301;43.626;10.580;2023-06-14T12:08:48;28.30;99.90
35129;DHT22;21301;43.626;10.580;2023-06-14T12:11:15;28.50;99.90
35129;DHT22;21301;43.626;10.580;2023-06-14T12:13:43;28.20;99.90
35129;DHT22;21301;43.626;10.580;2023-06-14T12:16:10;28.20;99.90
35129;DHT22;21301;43.626;10.580;2023-06-14T12:18:38;28.60;99.90
35129;DHT22;21301;43.626;10.580;2023-06-14T12:21:08;28.70;99.90
35129;DHT22;21301;43.626;10.580;2023-06-14T12:23:54;28.40;99.90
35129;DHT22;21301;43.626;10.580;2023-06-14T12:26:20;27.90;99.90
35129;DHT22;21301;43.626;10.580;2023-06-14T12:28:47;28.40;99.90
35129;DHT22;21301;43.626;10.580;2023-06-14T12:31:14;28.80;99.90
35129;DHT22;21301;43.626;10.580;2023-06-14T12:33:41;28.80;99.90
35129;DHT22;21301;43.626;10.580;2023-06-14T12:36:08;28.90;99.90
35129;DHT22;21301;43.626;10.580;2023-06-14T12:38:35;29.10;99.90
35129;DHT22;21301;43.626;10.580;2023-06-14T12:41:01;29.20;99.90
35129;DHT22;21301;43.626;10.580;2023-06-14T12:43:27;29.30;99.90
35129;DHT22;21301;43.626;10.580;2023-06-14T12:45:53;29.80;99.90
35129;DHT22;21301;43.626;10.580;2023-06-14T12:48:19;30.00;99.90
35129;DHT22;21301;43.626;10.580;2023-06-14T12:50:46;29.90;99.70
35129;DHT22;21301;43.626;10.580;2023-06-14T12:53:12;29.30;99.70
35129;DHT22;21301;43.626;10.580;2023-06-14T12:55:37;29.20;99.70
35129;DHT22;21301;43.626;10.580;2023-06-14T12:58:03;28.00;99.90
35129;DHT22;21301;43.626;10.580;2023-06-14T13:00:30;27.40;99.90
35129;DHT22;21301;43.626;10.580;2023-06-14T13:02:56;27.10;99.90
35129;DHT22;21301;43.626;10.580;2023-06-14T13:05:23;26.90;99.90
35129;DHT22;21301;43.626;10.580;2023-06-14T13:07:49;26.90;99.90
35129;DHT22;21301;43.626;10.580;2023-06-14T13:10:15;26.90;99.90
35129;DHT22;21301;43.626;10.580;2023-06-14T13:12:41;26.60;99.90
35129;DHT22;21301;43.626;10.580;2023-06-14T13:15:07;26.20;99.90
35129;DHT22;21301;43.626;10.580;2023-06-14T13:17:34;25.70;99.90
35129;DHT22;21301;43.626;10.580;2023-06-14T13:20:07;25.20;99.90
35129;DHT22;21301;43.626;10.580;2023-06-14T13:22:34;24.90;99.90
35129;DHT22;21301;43.626;10.580;2023-06-14T13:25:00;24.70;99.90
35129;DHT22;21301;43.626;10.580;2023-06-14T13:27:26;24.70;99.90
35129;DHT22;21301;43.626;10.580;2023-06-14T13:29:52;24.30;99.90
35129;DHT22;21301;43.626;10.580;2023-06-14T13:32:20;24.10;99.90
35129;DHT22;21301;43.626;10.580;2023-06-14T13:34:46;24.20;99.90
35129;DHT22;21301;43.626;10.580;2023-06-14T13:37:11;23.80;99.90
35129;DHT22;21301;43.626;10.580;2023-06-14T13:39:37;23.80;99.90
35129;DHT22;21301;43.626;10.580;2023-06-14T13:42:03;23.40;99.90
35129;DHT22;21301;43.626;10.580;2023-06-14T13:44:29;23.40;99.90
35129;DHT22;21301;43.626;10.580;2023-06-14T13:46:55;23.40;99.90
35129;DHT22;21301;43.626;10.580;2023-06-14T13:49:21;22.50;99.90
35129;DHT22;21301;43.626;10.580;2023-06-14T13:51:47;22.80;99.90
35129;DHT22;21301;43.626;10.580;2023-06-14T13:54:13;22.10;99.90
35129;DHT22;21301;43.626;10.580;2023-06-14T13:56:41;21.50;99.90
35129;DHT22;21301;43.626;10.580;2023-06-14T13:59:06;21.60;99.90
35129;DHT22;21301;43.626;10.580;2023-06-14T14:01:32;21.90;99.90
35129;DHT22;21301;43.626;10.580;2023-06-14T14:03:58;21.80;99.90
35129;DHT22;21301;43.626;10.580;2023-06-14T14:06:26;21.60;99.90
35129;DHT22;21301;43.626;10.580;2023-06-14T14:08:52;21.30;99.90
35129;DHT22;21301;43.626;10.580;2023-06-14T14:11:18;21.10;99.90
35129;DHT22;21301;43.626;10.580;2023-06-14T14:13:44;21.10;99.90
35129;DHT22;21301;43.626;10.580;2023-06-14T14:16:10;21.70;99.90
35129;DHT22;21301;43.626;10.580;2023-06-14T14:18:36;22.10;99.90
35129;DHT22;21301;43.626;10.580;2023-06-14T14:21:02;21.90;99.90
35129;DHT22;21301;43.626;10.580;2023-06-14T14:23:28;21.60;99.90
35129;DHT22;21301;43.626;10.580;2023-06-14T14:25:54;21.60;99.90
35129;DHT22;21301;43.626;10.580;2023-06-14T14:28:20;21.30;99.90
35129;DHT22;21301;43.626;10.580;2023-06-14T14:30:47;21.10;99.90
35129;DHT22;21301;43.626;10.580;2023-06-14T14:33:14;20.90;99.90
35129;DHT22;21301;43.626;10.580;2023-06-14T14:35:43;20.80;99.90
35129;DHT22;21301;43.626;10.580;2023-06-14T14:38:09;20.80;99.90
35129;DHT22;21301;43.626;10.580;2023-06-14T14:40:35;20.90;99.90
35129;DHT22;21301;43.626;10.580;2023-06-14T14:43:01;21.10;99.90
35129;DHT22;21301;43.626;10.580;2023-06-14T14:45:27;21.30;99.90
35129;DHT22;21301;43.626;10.580;2023-06-14T14:47:53;21.50;99.90
35129;DHT22;21301;43.626;10.580;2023-06-14T14:50:19;21.50;99.90
35129;DHT22;21301;43.626;10.580;2023-06-14T14:52:45;21.50;99.90
35129;DHT22;21301;43.626;10.580;2023-06-14T14:55:11;21.50;99.90
35129;DHT22;21301;43.626;10.580;2023-06-14T14:57:36;21.40;99.90
35129;DHT22;21301;43.626;10.580;2023-06-14T15:00:06;21.40;99.90
35129;DHT22;21301;43.626;10.580;2023-06-14T15:02:32;21.40;99.90
35129;DHT22;21301;43.626;10.580;2023-06-14T15:04:57;21.50;99.90
35129;DHT22;21301;43.626;10.580;2023-06-14T15:07:30;21.60;99.90
35129;DHT22;21301;43.626;10.580;2023-06-14T15:09:57;21.60;99.90
35129;DHT22;21301;43.626;10.580;2023-06-14T15:12:23;21.20;99.90
35129;DHT22;21301;43.626;10.580;2023-06-14T15:14:53;21.10;99.90
35129;DHT22;21301;43.626;10.580;2023-06-14T15:17:19;21.20;99.90
35129;DHT22;21301;43.626;10.580;2023-06-14T15:19:46;21.30;99.90
35129;DHT22;21301;43.626;10.580;2023-06-14T15:22:13;21.50;99.90
35129;DHT22;21301;43.626;10.580;2023-06-14T15:24:41;21.60;99.90
35129;DHT22;21301;43.626;10.580;2023-06-14T15:27:06;21.40;99.90
35129;DHT22;21301;43.626;10.580;2023-06-14T15:29:33;21.50;99.90
35129;DHT22;21301;43.626;10.580;2023-06-14T15:32:00;21.40;99.90
35129;DHT22;21301;43.626;10.580;2023-06-14T15:34:26;21.50;99.90
35129;DHT22;21301;43.626;10.580;2023-06-14T15:36:52;21.70;99.90